Terminal Aerodrome Forecast
Issued by NWS

Home | Current Version | Previous Version | Text Only | Print | Product List | Glossary On
Versions: 1 2 3 4 5 6 7 8 9 10 11 12 13
000
FTUS46 KSEW 311700
TAFBLI
TAF
KBLI 311740Z 3118/0118 VRB03KT 3/4SM BR VV002
      TEMPO 3118/3120 1/4SM FG
     FM312000 VRB03KT 4SM BR FEW004 SCT100 OVC250
     FM312100 VRB03KT P6SM SCT100 OVC250
     FM010000 VRB03KT P6SM SCT050 BKN100 OVC250
     FM010600 VRB03KT P6SM -RA FEW035 BKN050 OVC100=

USA.gov is the U.S. government's official web portal to all federal, state and local government web resources and services.